Metar z pełnej godziny Komunikat METAR ze strony awiacja.imgw.pl Metar G00 EPLB METAR EPLB 240500Z 17007KT 8000 FEW006 OVC032 M05/M05 Q1027 =